sensor_id;sensor_type;location;lat;lon;timestamp;P1;durP1;ratioP1;P2;durP2;ratioP2
75506;SDS011;64086;43.220;27.878;2024-01-30T00:01:09;19.23;;;8.82;;
75506;SDS011;64086;43.220;27.878;2024-01-30T00:03:35;18.40;;;8.73;;
75506;SDS011;64086;43.220;27.878;2024-01-30T00:06:02;14.23;;;8.13;;
75506;SDS011;64086;43.220;27.878;2024-01-30T00:08:28;17.42;;;8.68;;
75506;SDS011;64086;43.220;27.878;2024-01-30T00:10:53;16.27;;;9.02;;
75506;SDS011;64086;43.220;27.878;2024-01-30T00:13:19;14.18;;;8.73;;
75506;SDS011;64086;43.220;27.878;2024-01-30T00:15:45;16.70;;;9.07;;
75506;SDS011;64086;43.220;27.878;2024-01-30T00:18:10;15.80;;;9.55;;
75506;SDS011;64086;43.220;27.878;2024-01-30T00:20:36;16.25;;;8.93;;
75506;SDS011;64086;43.220;27.878;2024-01-30T00:23:01;18.42;;;8.82;;
75506;SDS011;64086;43.220;27.878;2024-01-30T00:25:27;16.80;;;9.63;;
75506;SDS011;64086;43.220;27.878;2024-01-30T00:27:53;17.90;;;9.35;;
75506;SDS011;64086;43.220;27.878;2024-01-30T00:30:19;18.52;;;9.60;;
75506;SDS011;64086;43.220;27.878;2024-01-30T00:32:45;17.10;;;9.02;;
75506;SDS011;64086;43.220;27.878;2024-01-30T00:35:11;18.35;;;10.27;;
75506;SDS011;64086;43.220;27.878;2024-01-30T00:37:36;16.88;;;8.65;;
75506;SDS011;64086;43.220;27.878;2024-01-30T00:40:02;19.15;;;9.88;;
75506;SDS011;64086;43.220;27.878;2024-01-30T00:42:28;17.70;;;9.10;;
75506;SDS011;64086;43.220;27.878;2024-01-30T00:44:54;19.52;;;9.48;;
75506;SDS011;64086;43.220;27.878;2024-01-30T00:47:19;18.08;;;10.18;;
75506;SDS011;64086;43.220;27.878;2024-01-30T00:49:45;15.02;;;7.75;;
75506;SDS011;64086;43.220;27.878;2024-01-30T00:52:11;18.63;;;10.05;;
75506;SDS011;64086;43.220;27.878;2024-01-30T00:54:36;17.83;;;9.32;;
75506;SDS011;64086;43.220;27.878;2024-01-30T00:57:02;17.77;;;9.55;;
75506;SDS011;64086;43.220;27.878;2024-01-30T00:59:28;19.17;;;10.95;;
75506;SDS011;64086;43.220;27.878;2024-01-30T01:01:53;18.83;;;10.07;;
75506;SDS011;64086;43.220;27.878;2024-01-30T01:04:19;16.48;;;9.35;;
75506;SDS011;64086;43.220;27.878;2024-01-30T01:06:46;19.02;;;9.98;;
75506;SDS011;64086;43.220;27.878;2024-01-30T01:09:12;17.98;;;10.05;;
75506;SDS011;64086;43.220;27.878;2024-01-30T01:11:37;18.58;;;9.35;;
75506;SDS011;64086;43.220;27.878;2024-01-30T01:14:03;17.83;;;9.63;;
75506;SDS011;64086;43.220;27.878;2024-01-30T01:16:29;14.48;;;8.65;;
75506;SDS011;64086;43.220;27.878;2024-01-30T01:18:55;19.70;;;10.10;;
75506;SDS011;64086;43.220;27.878;2024-01-30T01:21:20;18.33;;;10.65;;
75506;SDS011;64086;43.220;27.878;2024-01-30T01:23:46;19.38;;;10.18;;
75506;SDS011;64086;43.220;27.878;2024-01-30T01:26:11;17.25;;;9.43;;
75506;SDS011;64086;43.220;27.878;2024-01-30T01:28:39;16.55;;;9.00;;
75506;SDS011;64086;43.220;27.878;2024-01-30T01:31:05;19.52;;;10.05;;
75506;SDS011;64086;43.220;27.878;2024-01-30T01:33:34;19.27;;;9.65;;
75506;SDS011;64086;43.220;27.878;2024-01-30T01:36:02;16.42;;;8.73;;
75506;SDS011;64086;43.220;27.878;2024-01-30T01:38:27;18.42;;;9.80;;
75506;SDS011;64086;43.220;27.878;2024-01-30T01:40:53;19.73;;;9.82;;
75506;SDS011;64086;43.220;27.878;2024-01-30T01:43:19;16.83;;;9.48;;
75506;SDS011;64086;43.220;27.878;2024-01-30T01:45:45;18.63;;;9.05;;
75506;SDS011;64086;43.220;27.878;2024-01-30T01:48:10;18.15;;;9.52;;
75506;SDS011;64086;43.220;27.878;2024-01-30T01:50:37;17.55;;;9.70;;
75506;SDS011;64086;43.220;27.878;2024-01-30T01:53:03;16.40;;;9.52;;
75506;SDS011;64086;43.220;27.878;2024-01-30T01:55:29;16.45;;;9.52;;
75506;SDS011;64086;43.220;27.878;2024-01-30T01:57:54;17.27;;;9.85;;
75506;SDS011;64086;43.220;27.878;2024-01-30T02:00:20;17.52;;;9.15;;
75506;SDS011;64086;43.220;27.878;2024-01-30T02:02:46;16.20;;;8.82;;
75506;SDS011;64086;43.220;27.878;2024-01-30T02:05:12;19.27;;;9.85;;
75506;SDS011;64086;43.220;27.878;2024-01-30T02:07:38;17.45;;;9.32;;
75506;SDS011;64086;43.220;27.878;2024-01-30T02:10:04;16.42;;;8.50;;
75506;SDS011;64086;43.220;27.878;2024-01-30T02:12:29;20.20;;;8.93;;
75506;SDS011;64086;43.220;27.878;2024-01-30T02:14:55;18.48;;;9.63;;
75506;SDS011;64086;43.220;27.878;2024-01-30T02:17:21;19.13;;;9.98;;
75506;SDS011;64086;43.220;27.878;2024-01-30T02:19:48;16.25;;;9.00;;
75506;SDS011;64086;43.220;27.878;2024-01-30T02:22:13;18.10;;;8.98;;
75506;SDS011;64086;43.220;27.878;2024-01-30T02:24:39;17.08;;;9.13;;
75506;SDS011;64086;43.220;27.878;2024-01-30T02:27:05;18.08;;;8.80;;
75506;SDS011;64086;43.220;27.878;2024-01-30T02:29:30;14.90;;;8.82;;
75506;SDS011;64086;43.220;27.878;2024-01-30T02:31:56;19.20;;;9.35;;
75506;SDS011;64086;43.220;27.878;2024-01-30T02:34:21;18.10;;;8.45;;
75506;SDS011;64086;43.220;27.878;2024-01-30T02:36:47;15.77;;;8.60;;
75506;SDS011;64086;43.220;27.878;2024-01-30T02:39:12;15.82;;;8.20;;
75506;SDS011;64086;43.220;27.878;2024-01-30T02:41:38;14.95;;;8.52;;
75506;SDS011;64086;43.220;27.878;2024-01-30T02:44:04;19.40;;;9.00;;
75506;SDS011;64086;43.220;27.878;2024-01-30T02:46:29;20.10;;;9.30;;
75506;SDS011;64086;43.220;27.878;2024-01-30T02:48:55;18.02;;;9.02;;
75506;SDS011;64086;43.220;27.878;2024-01-30T02:51:20;17.13;;;8.55;;
75506;SDS011;64086;43.220;27.878;2024-01-30T02:53:46;15.70;;;9.57;;
75506;SDS011;64086;43.220;27.878;2024-01-30T02:56:11;17.25;;;9.48;;
75506;SDS011;64086;43.220;27.878;2024-01-30T02:58:39;16.48;;;9.05;;
75506;SDS011;64086;43.220;27.878;2024-01-30T03:01:05;17.95;;;9.73;;
75506;SDS011;64086;43.220;27.878;2024-01-30T03:03:30;17.63;;;9.23;;
75506;SDS011;64086;43.220;27.878;2024-01-30T03:05:56;18.83;;;9.48;;
75506;SDS011;64086;43.220;27.878;2024-01-30T03:08:21;18.25;;;9.82;;
75506;SDS011;64086;43.220;27.878;2024-01-30T03:10:47;18.00;;;9.10;;
75506;SDS011;64086;43.220;27.878;2024-01-30T03:13:12;17.60;;;9.10;;
75506;SDS011;64086;43.220;27.878;2024-01-30T03:15:38;19.27;;;8.98;;
75506;SDS011;64086;43.220;27.878;2024-01-30T03:18:03;17.20;;;9.40;;
75506;SDS011;64086;43.220;27.878;2024-01-30T03:20:30;18.67;;;8.98;;
75506;SDS011;64086;43.220;27.878;2024-01-30T03:22:55;17.00;;;8.95;;
75506;SDS011;64086;43.220;27.878;2024-01-30T03:25:21;19.27;;;10.55;;
75506;SDS011;64086;43.220;27.878;2024-01-30T03:27:47;16.23;;;9.60;;
75506;SDS011;64086;43.220;27.878;2024-01-30T03:30:12;16.70;;;9.05;;
75506;SDS011;64086;43.220;27.878;2024-01-30T03:32:38;19.55;;;10.63;;
75506;SDS011;64086;43.220;27.878;2024-01-30T03:35:03;18.45;;;9.20;;
75506;SDS011;64086;43.220;27.878;2024-01-30T03:37:29;17.52;;;9.93;;
75506;SDS011;64086;43.220;27.878;2024-01-30T03:39:54;17.20;;;9.00;;
75506;SDS011;64086;43.220;27.878;2024-01-30T03:42:20;17.13;;;8.93;;
75506;SDS011;64086;43.220;27.878;2024-01-30T03:44:46;20.23;;;10.18;;
75506;SDS011;64086;43.220;27.878;2024-01-30T03:47:11;17.67;;;9.60;;
75506;SDS011;64086;43.220;27.878;2024-01-30T03:49:37;19.70;;;10.20;;
75506;SDS011;64086;43.220;27.878;2024-01-30T03:52:02;21.52;;;10.38;;
75506;SDS011;64086;43.220;27.878;2024-01-30T03:54:29;17.65;;;9.20;;
75506;SDS011;64086;43.220;27.878;2024-01-30T03:56:54;17.45;;;8.93;;
75506;SDS011;64086;43.220;27.878;2024-01-30T03:59:20;17.67;;;9.38;;
75506;SDS011;64086;43.220;27.878;2024-01-30T04:01:49;20.40;;;9.02;;
75506;SDS011;64086;43.220;27.878;2024-01-30T04:04:16;15.88;;;8.65;;
75506;SDS011;64086;43.220;27.878;2024-01-30T04:06:42;14.85;;;8.68;;
75506;SDS011;64086;43.220;27.878;2024-01-30T04:09:08;15.27;;;8.10;;
75506;SDS011;64086;43.220;27.878;2024-01-30T04:11:34;17.35;;;9.40;;
75506;SDS011;64086;43.220;27.878;2024-01-30T04:14:00;18.67;;;8.73;;
75506;SDS011;64086;43.220;27.878;2024-01-30T04:16:25;16.10;;;9.30;;
75506;SDS011;64086;43.220;27.878;2024-01-30T04:18:51;16.90;;;8.63;;
75506;SDS011;64086;43.220;27.878;2024-01-30T04:21:17;19.73;;;8.40;;
75506;SDS011;64086;43.220;27.878;2024-01-30T04:23:43;16.67;;;8.70;;
75506;SDS011;64086;43.220;27.878;2024-01-30T04:26:08;16.13;;;8.70;;
75506;SDS011;64086;43.220;27.878;2024-01-30T04:28:34;16.48;;;9.05;;
75506;SDS011;64086;43.220;27.878;2024-01-30T04:30:59;15.70;;;8.52;;
75506;SDS011;64086;43.220;27.878;2024-01-30T04:33:25;16.10;;;8.63;;
75506;SDS011;64086;43.220;27.878;2024-01-30T04:35:50;16.77;;;8.48;;
75506;SDS011;64086;43.220;27.878;2024-01-30T04:38:17;17.02;;;8.63;;
75506;SDS011;64086;43.220;27.878;2024-01-30T04:40:42;15.50;;;7.75;;
75506;SDS011;64086;43.220;27.878;2024-01-30T04:43:08;16.15;;;8.18;;
75506;SDS011;64086;43.220;27.878;2024-01-30T04:45:34;17.20;;;8.55;;
75506;SDS011;64086;43.220;27.878;2024-01-30T04:47:59;16.63;;;8.85;;
75506;SDS011;64086;43.220;27.878;2024-01-30T04:50:25;17.88;;;8.95;;
75506;SDS011;64086;43.220;27.878;2024-01-30T04:52:51;16.65;;;8.05;;
75506;SDS011;64086;43.220;27.878;2024-01-30T04:55:17;15.88;;;8.20;;
75506;SDS011;64086;43.220;27.878;2024-01-30T04:57:42;14.60;;;7.47;;
75506;SDS011;64086;43.220;27.878;2024-01-30T05:00:08;15.93;;;8.63;;
75506;SDS011;64086;43.220;27.878;2024-01-30T05:02:34;16.55;;;8.65;;
75506;SDS011;64086;43.220;27.878;2024-01-30T05:05:00;18.80;;;7.75;;
75506;SDS011;64086;43.220;27.878;2024-01-30T05:07:25;15.75;;;7.63;;
75506;SDS011;64086;43.220;27.878;2024-01-30T05:09:51;17.15;;;8.73;;
75506;SDS011;64086;43.220;27.878;2024-01-30T05:12:17;17.30;;;8.00;;
75506;SDS011;64086;43.220;27.878;2024-01-30T05:14:42;15.88;;;7.50;;
75506;SDS011;64086;43.220;27.878;2024-01-30T05:17:08;15.50;;;8.35;;
75506;SDS011;64086;43.220;27.878;2024-01-30T05:19:35;14.95;;;8.57;;
75506;SDS011;64086;43.220;27.878;2024-01-30T05:22:00;16.30;;;8.35;;
75506;SDS011;64086;43.220;27.878;2024-01-30T05:24:26;16.88;;;8.35;;
75506;SDS011;64086;43.220;27.878;2024-01-30T05:26:51;13.63;;;7.60;;
75506;SDS011;64086;43.220;27.878;2024-01-30T05:29:17;15.02;;;7.90;;
75506;SDS011;64086;43.220;27.878;2024-01-30T05:31:42;16.02;;;8.25;;
75506;SDS011;64086;43.220;27.878;2024-01-30T05:34:08;16.77;;;8.25;;
75506;SDS011;64086;43.220;27.878;2024-01-30T05:36:34;15.77;;;7.68;;
75506;SDS011;64086;43.220;27.878;2024-01-30T05:39:00;15.73;;;7.85;;
75506;SDS011;64086;43.220;27.878;2024-01-30T05:41:25;16.45;;;8.38;;
75506;SDS011;64086;43.220;27.878;2024-01-30T05:43:51;15.45;;;7.15;;
75506;SDS011;64086;43.220;27.878;2024-01-30T05:46:16;16.77;;;8.27;;
75506;SDS011;64086;43.220;27.878;2024-01-30T05:48:42;16.90;;;8.23;;
75506;SDS011;64086;43.220;27.878;2024-01-30T05:51:07;15.60;;;7.95;;
75506;SDS011;64086;43.220;27.878;2024-01-30T05:53:33;15.73;;;7.32;;
75506;SDS011;64086;43.220;27.878;2024-01-30T05:56:00;14.05;;;7.80;;
75506;SDS011;64086;43.220;27.878;2024-01-30T05:58:26;14.98;;;7.75;;
75506;SDS011;64086;43.220;27.878;2024-01-30T06:00:52;15.57;;;7.25;;
75506;SDS011;64086;43.220;27.878;2024-01-30T06:03:17;14.25;;;7.45;;
75506;SDS011;64086;43.220;27.878;2024-01-30T06:05:43;14.57;;;7.38;;
75506;SDS011;64086;43.220;27.878;2024-01-30T06:08:08;13.30;;;7.03;;
75506;SDS011;64086;43.220;27.878;2024-01-30T06:10:34;15.68;;;7.15;;
75506;SDS011;64086;43.220;27.878;2024-01-30T06:12:59;14.18;;;7.32;;
75506;SDS011;64086;43.220;27.878;2024-01-30T06:15:25;13.30;;;7.60;;
75506;SDS011;64086;43.220;27.878;2024-01-30T06:17:51;12.77;;;6.75;;
75506;SDS011;64086;43.220;27.878;2024-01-30T06:20:17;13.68;;;7.68;;
75506;SDS011;64086;43.220;27.878;2024-01-30T06:22:43;14.43;;;7.95;;
75506;SDS011;64086;43.220;27.878;2024-01-30T06:25:08;14.85;;;7.32;;
75506;SDS011;64086;43.220;27.878;2024-01-30T06:27:34;14.68;;;7.35;;
75506;SDS011;64086;43.220;27.878;2024-01-30T06:30:00;14.85;;;7.00;;
75506;SDS011;64086;43.220;27.878;2024-01-30T06:32:26;15.98;;;6.78;;
75506;SDS011;64086;43.220;27.878;2024-01-30T06:34:53;16.25;;;7.28;;
75506;SDS011;64086;43.220;27.878;2024-01-30T06:37:19;10.50;;;6.30;;
75506;SDS011;64086;43.220;27.878;2024-01-30T06:39:44;13.05;;;7.68;;
75506;SDS011;64086;43.220;27.878;2024-01-30T06:42:10;11.35;;;6.03;;
75506;SDS011;64086;43.220;27.878;2024-01-30T06:44:36;12.57;;;6.30;;
75506;SDS011;64086;43.220;27.878;2024-01-30T06:47:02;14.00;;;6.32;;
75506;SDS011;64086;43.220;27.878;2024-01-30T06:49:28;12.52;;;6.70;;
75506;SDS011;64086;43.220;27.878;2024-01-30T06:51:53;12.13;;;6.60;;
75506;SDS011;64086;43.220;27.878;2024-01-30T06:54:19;12.95;;;7.38;;
75506;SDS011;64086;43.220;27.878;2024-01-30T06:56:44;15.23;;;7.90;;
75506;SDS011;64086;43.220;27.878;2024-01-30T06:59:09;14.05;;;6.70;;
75506;SDS011;64086;43.220;27.878;2024-01-30T07:01:35;11.68;;;6.20;;
75506;SDS011;64086;43.220;27.878;2024-01-30T07:04:01;15.85;;;7.05;;
75506;SDS011;64086;43.220;27.878;2024-01-30T07:06:26;13.20;;;6.70;;
75506;SDS011;64086;43.220;27.878;2024-01-30T07:08:52;14.85;;;6.25;;
75506;SDS011;64086;43.220;27.878;2024-01-30T07:11:20;13.63;;;6.68;;
75506;SDS011;64086;43.220;27.878;2024-01-30T07:13:52;12.00;;;6.38;;
75506;SDS011;64086;43.220;27.878;2024-01-30T07:16:18;14.32;;;7.72;;
75506;SDS011;64086;43.220;27.878;2024-01-30T07:18:44;13.60;;;7.40;;
75506;SDS011;64086;43.220;27.878;2024-01-30T07:21:10;10.57;;;6.20;;
75506;SDS011;64086;43.220;27.878;2024-01-30T07:23:36;11.82;;;6.55;;
75506;SDS011;64086;43.220;27.878;2024-01-30T07:26:06;13.40;;;5.93;;
75506;SDS011;64086;43.220;27.878;2024-01-30T07:28:33;13.82;;;7.20;;
75506;SDS011;64086;43.220;27.878;2024-01-30T07:30:59;13.07;;;6.97;;
75506;SDS011;64086;43.220;27.878;2024-01-30T07:33:25;10.73;;;5.15;;
75506;SDS011;64086;43.220;27.878;2024-01-30T07:35:52;13.63;;;6.28;;
75506;SDS011;64086;43.220;27.878;2024-01-30T07:38:18;12.52;;;6.35;;
75506;SDS011;64086;43.220;27.878;2024-01-30T07:40:43;12.68;;;7.03;;
75506;SDS011;64086;43.220;27.878;2024-01-30T07:43:09;13.25;;;6.70;;
75506;SDS011;64086;43.220;27.878;2024-01-30T07:45:35;12.30;;;6.25;;
75506;SDS011;64086;43.220;27.878;2024-01-30T07:48:00;14.40;;;6.45;;
75506;SDS011;64086;43.220;27.878;2024-01-30T07:50:26;12.70;;;5.93;;
75506;SDS011;64086;43.220;27.878;2024-01-30T07:52:52;12.38;;;6.30;;
75506;SDS011;64086;43.220;27.878;2024-01-30T07:55:22;11.82;;;6.05;;
75506;SDS011;64086;43.220;27.878;2024-01-30T07:57:52;11.95;;;6.63;;
75506;SDS011;64086;43.220;27.878;2024-01-30T08:00:20;11.55;;;5.95;;
75506;SDS011;64086;43.220;27.878;2024-01-30T08:02:46;13.20;;;6.22;;
75506;SDS011;64086;43.220;27.878;2024-01-30T08:05:12;11.57;;;5.93;;
75506;SDS011;64086;43.220;27.878;2024-01-30T08:07:39;12.93;;;6.60;;
75506;SDS011;64086;43.220;27.878;2024-01-30T08:10:05;13.05;;;6.57;;
75506;SDS011;64086;43.220;27.878;2024-01-30T08:12:31;11.25;;;5.63;;
75506;SDS011;64086;43.220;27.878;2024-01-30T08:14:56;12.43;;;6.35;;
75506;SDS011;64086;43.220;27.878;2024-01-30T08:17:22;10.50;;;5.45;;
75506;SDS011;64086;43.220;27.878;2024-01-30T08:19:47;12.90;;;6.05;;
75506;SDS011;64086;43.220;27.878;2024-01-30T08:22:13;11.10;;;5.70;;
75506;SDS011;64086;43.220;27.878;2024-01-30T08:24:38;12.15;;;6.18;;
75506;SDS011;64086;43.220;27.878;2024-01-30T08:27:06;10.10;;;5.55;;
75506;SDS011;64086;43.220;27.878;2024-01-30T08:29:31;10.43;;;6.13;;
75506;SDS011;64086;43.220;27.878;2024-01-30T08:31:57;10.55;;;5.38;;
75506;SDS011;64086;43.220;27.878;2024-01-30T08:34:24;12.93;;;5.80;;
75506;SDS011;64086;43.220;27.878;2024-01-30T08:36:49;12.52;;;6.28;;
75506;SDS011;64086;43.220;27.878;2024-01-30T08:39:15;11.70;;;6.55;;
75506;SDS011;64086;43.220;27.878;2024-01-30T08:41:40;10.70;;;5.55;;
75506;SDS011;64086;43.220;27.878;2024-01-30T08:44:06;11.45;;;6.03;;
75506;SDS011;64086;43.220;27.878;2024-01-30T08:46:32;10.98;;;5.38;;
75506;SDS011;64086;43.220;27.878;2024-01-30T08:48:58;11.15;;;5.80;;
75506;SDS011;64086;43.220;27.878;2024-01-30T08:51:23;10.43;;;5.60;;
75506;SDS011;64086;43.220;27.878;2024-01-30T08:53:48;11.23;;;5.70;;
75506;SDS011;64086;43.220;27.878;2024-01-30T08:56:14;9.82;;;5.57;;
75506;SDS011;64086;43.220;27.878;2024-01-30T08:58:41;11.20;;;6.20;;
75506;SDS011;64086;43.220;27.878;2024-01-30T09:01:07;10.98;;;5.82;;
75506;SDS011;64086;43.220;27.878;2024-01-30T09:03:32;10.93;;;5.43;;
75506;SDS011;64086;43.220;27.878;2024-01-30T09:05:58;9.13;;;5.47;;
75506;SDS011;64086;43.220;27.878;2024-01-30T09:08:24;11.07;;;5.45;;
75506;SDS011;64086;43.220;27.878;2024-01-30T09:10:49;10.73;;;5.60;;
75506;SDS011;64086;43.220;27.878;2024-01-30T09:13:15;9.48;;;4.68;;
75506;SDS011;64086;43.220;27.878;2024-01-30T09:15:41;8.73;;;5.00;;
75506;SDS011;64086;43.220;27.878;2024-01-30T09:18:07;8.85;;;5.35;;
75506;SDS011;64086;43.220;27.878;2024-01-30T09:20:32;7.80;;;4.80;;
75506;SDS011;64086;43.220;27.878;2024-01-30T09:22:58;8.98;;;4.72;;
75506;SDS011;64086;43.220;27.878;2024-01-30T09:25:23;9.15;;;4.90;;
75506;SDS011;64086;43.220;27.878;2024-01-30T09:27:49;10.05;;;4.78;;
75506;SDS011;64086;43.220;27.878;2024-01-30T09:30:15;9.63;;;5.13;;
75506;SDS011;64086;43.220;27.878;2024-01-30T09:32:40;10.40;;;5.93;;
75506;SDS011;64086;43.220;27.878;2024-01-30T09:35:07;9.60;;;5.68;;
75506;SDS011;64086;43.220;27.878;2024-01-30T09:37:32;8.80;;;4.57;;
75506;SDS011;64086;43.220;27.878;2024-01-30T09:39:58;11.55;;;4.70;;
75506;SDS011;64086;43.220;27.878;2024-01-30T09:45:01;7.97;;;4.97;;
75506;SDS011;64086;43.220;27.878;2024-01-30T09:47:40;10.73;;;4.95;;
75506;SDS011;64086;43.220;27.878;2024-01-30T09:50:09;9.38;;;4.88;;
75506;SDS011;64086;43.220;27.878;2024-01-30T09:52:36;9.90;;;5.28;;
75506;SDS011;64086;43.220;27.878;2024-01-30T09:55:02;10.60;;;5.13;;
75506;SDS011;64086;43.220;27.878;2024-01-30T09:57:28;10.38;;;5.70;;
75506;SDS011;64086;43.220;27.878;2024-01-30T09:59:53;8.82;;;5.50;;
75506;SDS011;64086;43.220;27.878;2024-01-30T10:02:19;8.13;;;5.20;;
75506;SDS011;64086;43.220;27.878;2024-01-30T10:04:47;9.50;;;5.20;;
75506;SDS011;64086;43.220;27.878;2024-01-30T10:07:13;9.55;;;5.40;;
75506;SDS011;64086;43.220;27.878;2024-01-30T10:09:39;10.52;;;6.15;;
75506;SDS011;64086;43.220;27.878;2024-01-30T10:12:05;10.68;;;6.13;;
75506;SDS011;64086;43.220;27.878;2024-01-30T10:14:31;9.70;;;5.68;;
75506;SDS011;64086;43.220;27.878;2024-01-30T10:16:57;11.85;;;6.50;;
75506;SDS011;64086;43.220;27.878;2024-01-30T10:19:23;10.35;;;5.50;;
75506;SDS011;64086;43.220;27.878;2024-01-30T10:21:48;9.23;;;5.32;;
75506;SDS011;64086;43.220;27.878;2024-01-30T10:24:14;10.73;;;5.65;;
75506;SDS011;64086;43.220;27.878;2024-01-30T10:26:40;12.63;;;5.68;;
75506;SDS011;64086;43.220;27.878;2024-01-30T10:29:05;8.43;;;4.78;;
75506;SDS011;64086;43.220;27.878;2024-01-30T10:31:31;10.98;;;5.43;;
75506;SDS011;64086;43.220;27.878;2024-01-30T10:33:56;9.60;;;5.10;;
75506;SDS011;64086;43.220;27.878;2024-01-30T10:36:24;10.60;;;5.00;;
75506;SDS011;64086;43.220;27.878;2024-01-30T10:38:53;8.82;;;5.05;;
75506;SDS011;64086;43.220;27.878;2024-01-30T10:41:23;10.00;;;5.50;;
75506;SDS011;64086;43.220;27.878;2024-01-30T10:44:12;10.23;;;5.25;;
75506;SDS011;64086;43.220;27.878;2024-01-30T10:46:38;10.98;;;6.05;;
75506;SDS011;64086;43.220;27.878;2024-01-30T10:49:05;9.10;;;4.38;;
75506;SDS011;64086;43.220;27.878;2024-01-30T10:51:31;10.18;;;5.10;;
75506;SDS011;64086;43.220;27.878;2024-01-30T10:53:57;10.77;;;6.05;;
75506;SDS011;64086;43.220;27.878;2024-01-30T10:56:23;11.10;;;5.55;;
75506;SDS011;64086;43.220;27.878;2024-01-30T10:58:52;8.90;;;5.45;;
75506;SDS011;64086;43.220;27.878;2024-01-30T11:01:19;11.00;;;5.47;;
75506;SDS011;64086;43.220;27.878;2024-01-30T11:03:45;9.20;;;5.30;;
75506;SDS011;64086;43.220;27.878;2024-01-30T11:06:11;10.77;;;6.13;;
75506;SDS011;64086;43.220;27.878;2024-01-30T11:08:39;8.85;;;5.10;;
75506;SDS011;64086;43.220;27.878;2024-01-30T11:11:08;7.95;;;5.05;;
75506;SDS011;64086;43.220;27.878;2024-01-30T11:13:34;9.88;;;5.18;;
75506;SDS011;64086;43.220;27.878;2024-01-30T11:16:01;10.23;;;5.38;;
75506;SDS011;64086;43.220;27.878;2024-01-30T11:18:31;7.55;;;5.07;;
75506;SDS011;64086;43.220;27.878;2024-01-30T11:20:58;7.93;;;4.80;;
75506;SDS011;64086;43.220;27.878;2024-01-30T11:23:26;10.43;;;5.45;;
75506;SDS011;64086;43.220;27.878;2024-01-30T11:25:55;8.55;;;5.15;;
75506;SDS011;64086;43.220;27.878;2024-01-30T11:28:21;9.57;;;5.30;;
75506;SDS011;64086;43.220;27.878;2024-01-30T11:30:47;8.75;;;5.07;;
75506;SDS011;64086;43.220;27.878;2024-01-30T11:33:15;7.90;;;4.88;;
75506;SDS011;64086;43.220;27.878;2024-01-30T11:35:53;8.68;;;5.20;;
75506;SDS011;64086;43.220;27.878;2024-01-30T11:38:19;9.50;;;5.22;;
75506;SDS011;64086;43.220;27.878;2024-01-30T11:40:44;9.25;;;5.45;;
75506;SDS011;64086;43.220;27.878;2024-01-30T11:43:10;12.05;;;5.03;;
75506;SDS011;64086;43.220;27.878;2024-01-30T11:45:37;8.85;;;5.18;;
75506;SDS011;64086;43.220;27.878;2024-01-30T11:48:03;10.07;;;5.32;;
75506;SDS011;64086;43.220;27.878;2024-01-30T11:50:29;10.02;;;6.03;;
75506;SDS011;64086;43.220;27.878;2024-01-30T11:55:40;9.10;;;5.45;;
75506;SDS011;64086;43.220;27.878;2024-01-30T11:58:05;31.35;;;21.60;;
75506;SDS011;64086;43.220;27.878;2024-01-30T12:00:31;68.22;;;45.30;;
75506;SDS011;64086;43.220;27.878;2024-01-30T12:02:58;34.42;;;21.17;;
75506;SDS011;64086;43.220;27.878;2024-01-30T12:05:25;7.25;;;4.32;;
75506;SDS011;64086;43.220;27.878;2024-01-30T12:07:51;9.80;;;5.35;;
75506;SDS011;64086;43.220;27.878;2024-01-30T12:10:17;11.40;;;5.35;;
75506;SDS011;64086;43.220;27.878;2024-01-30T12:12:43;8.55;;;5.53;;
75506;SDS011;64086;43.220;27.878;2024-01-30T12:15:10;9.07;;;4.80;;
75506;SDS011;64086;43.220;27.878;2024-01-30T12:17:36;8.27;;;5.07;;
75506;SDS011;64086;43.220;27.878;2024-01-30T12:22:41;8.95;;;5.10;;
75506;SDS011;64086;43.220;27.878;2024-01-30T12:25:08;9.90;;;5.60;;
75506;SDS011;64086;43.220;27.878;2024-01-30T12:27:37;7.75;;;4.70;;
75506;SDS011;64086;43.220;27.878;2024-01-30T12:30:10;6.35;;;4.47;;
75506;SDS011;64086;43.220;27.878;2024-01-30T12:32:44;6.70;;;4.55;;
75506;SDS011;64086;43.220;27.878;2024-01-30T12:35:14;8.38;;;5.05;;
75506;SDS011;64086;43.220;27.878;2024-01-30T12:37:43;10.73;;;4.90;;
75506;SDS011;64086;43.220;27.878;2024-01-30T12:40:09;10.25;;;4.93;;
75506;SDS011;64086;43.220;27.878;2024-01-30T12:42:36;9.32;;;5.57;;
75506;SDS011;64086;43.220;27.878;2024-01-30T12:45:02;10.35;;;5.22;;
75506;SDS011;64086;43.220;27.878;2024-01-30T12:47:29;8.25;;;5.20;;
75506;SDS011;64086;43.220;27.878;2024-01-30T12:49:54;10.60;;;5.07;;
75506;SDS011;64086;43.220;27.878;2024-01-30T12:52:20;8.98;;;5.75;;
75506;SDS011;64086;43.220;27.878;2024-01-30T12:54:47;9.63;;;5.13;;
75506;SDS011;64086;43.220;27.878;2024-01-30T12:57:12;7.32;;;3.95;;
75506;SDS011;64086;43.220;27.878;2024-01-30T12:59:38;8.20;;;4.50;;
75506;SDS011;64086;43.220;27.878;2024-01-30T13:02:04;12.30;;;5.50;;
75506;SDS011;64086;43.220;27.878;2024-01-30T13:04:30;8.18;;;4.60;;
75506;SDS011;64086;43.220;27.878;2024-01-30T13:06:55;8.48;;;4.40;;
75506;SDS011;64086;43.220;27.878;2024-01-30T13:09:21;8.80;;;4.50;;
75506;SDS011;64086;43.220;27.878;2024-01-30T13:11:47;7.45;;;4.07;;
75506;SDS011;64086;43.220;27.878;2024-01-30T13:14:14;5.40;;;3.28;;
75506;SDS011;64086;43.220;27.878;2024-01-30T13:16:39;4.93;;;2.83;;
75506;SDS011;64086;43.220;27.878;2024-01-30T13:19:05;5.68;;;3.05;;
75506;SDS011;64086;43.220;27.878;2024-01-30T13:21:31;4.53;;;2.60;;
75506;SDS011;64086;43.220;27.878;2024-01-30T13:23:56;5.50;;;2.47;;
75506;SDS011;64086;43.220;27.878;2024-01-30T13:26:22;5.72;;;4.38;;
75506;SDS011;64086;43.220;27.878;2024-01-30T13:28:47;36.05;;;26.30;;
75506;SDS011;64086;43.220;27.878;2024-01-30T13:31:16;50.35;;;34.92;;
75506;SDS011;64086;43.220;27.878;2024-01-30T13:33:41;5.03;;;2.95;;
75506;SDS011;64086;43.220;27.878;2024-01-30T13:36:07;6.45;;;2.63;;
75506;SDS011;64086;43.220;27.878;2024-01-30T13:38:34;5.93;;;3.28;;
75506;SDS011;64086;43.220;27.878;2024-01-30T13:40:59;6.60;;;3.30;;
75506;SDS011;64086;43.220;27.878;2024-01-30T13:43:25;6.15;;;2.60;;
75506;SDS011;64086;43.220;27.878;2024-01-30T13:45:51;5.90;;;2.90;;
75506;SDS011;64086;43.220;27.878;2024-01-30T13:48:16;5.30;;;2.70;;
75506;SDS011;64086;43.220;27.878;2024-01-30T13:50:42;6.05;;;2.90;;
75506;SDS011;64086;43.220;27.878;2024-01-30T13:53:07;4.78;;;3.08;;
75506;SDS011;64086;43.220;27.878;2024-01-30T13:55:33;5.70;;;2.90;;
75506;SDS011;64086;43.220;27.878;2024-01-30T13:57:59;5.45;;;2.83;;
75506;SDS011;64086;43.220;27.878;2024-01-30T14:00:26;4.97;;;2.63;;
75506;SDS011;64086;43.220;27.878;2024-01-30T14:02:52;6.95;;;3.40;;
75506;SDS011;64086;43.220;27.878;2024-01-30T14:05:20;4.72;;;2.97;;
75506;SDS011;64086;43.220;27.878;2024-01-30T14:07:46;5.68;;;2.42;;
75506;SDS011;64086;43.220;27.878;2024-01-30T14:10:12;5.10;;;2.58;;
75506;SDS011;64086;43.220;27.878;2024-01-30T14:12:37;6.18;;;3.00;;
75506;SDS011;64086;43.220;27.878;2024-01-30T14:15:03;4.70;;;2.85;;
75506;SDS011;64086;43.220;27.878;2024-01-30T14:17:29;4.95;;;2.70;;
75506;SDS011;64086;43.220;27.878;2024-01-30T14:19:54;5.93;;;3.00;;
75506;SDS011;64086;43.220;27.878;2024-01-30T14:22:20;5.00;;;2.95;;
75506;SDS011;64086;43.220;27.878;2024-01-30T14:24:45;5.75;;;2.70;;